sensor_id;sensor_type;location;lat;lon;timestamp;P1;P2;P0
32503;PMS5003;18953;45.930;13.640;2024-01-25T00:00:19;94;72;
32503;PMS5003;18953;45.930;13.640;2024-01-25T00:05:35;91;68;
32503;PMS5003;18953;45.930;13.640;2024-01-25T00:10:52;92;71;
32503;PMS5003;18953;45.930;13.640;2024-01-25T00:16:09;92;69;
32503;PMS5003;18953;45.930;13.640;2024-01-25T00:21:25;93;70;
32503;PMS5003;18953;45.930;13.640;2024-01-25T00:26:42;86;69;
32503;PMS5003;18953;45.930;13.640;2024-01-25T00:31:59;87;68;
32503;PMS5003;18953;45.930;13.640;2024-01-25T00:37:16;84;63;
32503;PMS5003;18953;45.930;13.640;2024-01-25T00:42:32;78;59;
32503;PMS5003;18953;45.930;13.640;2024-01-25T00:47:50;76;60;
32503;PMS5003;18953;45.930;13.640;2024-01-25T00:53:06;69;53;
32503;PMS5003;18953;45.930;13.640;2024-01-25T00:58:23;72;57;
32503;PMS5003;18953;45.930;13.640;2024-01-25T01:03:39;80;61;
32503;PMS5003;18953;45.930;13.640;2024-01-25T01:08:56;84;66;
32503;PMS5003;18953;45.930;13.640;2024-01-25T01:14:13;76;59;
32503;PMS5003;18953;45.930;13.640;2024-01-25T01:19:29;71;58;
32503;PMS5003;18953;45.930;13.640;2024-01-25T01:24:46;85;64;
32503;PMS5003;18953;45.930;13.640;2024-01-25T01:30:02;77;61;
32503;PMS5003;18953;45.930;13.640;2024-01-25T01:35:19;75;60;
32503;PMS5003;18953;45.930;13.640;2024-01-25T01:40:35;76;58;
32503;PMS5003;18953;45.930;13.640;2024-01-25T01:45:52;73;58;
32503;PMS5003;18953;45.930;13.640;2024-01-25T01:51:08;76;61;
32503;PMS5003;18953;45.930;13.640;2024-01-25T01:56:26;83;64;
32503;PMS5003;18953;45.930;13.640;2024-01-25T02:01:42;76;57;
32503;PMS5003;18953;45.930;13.640;2024-01-25T02:06:58;76;60;
32503;PMS5003;18953;45.930;13.640;2024-01-25T02:12:16;83;64;
32503;PMS5003;18953;45.930;13.640;2024-01-25T02:17:32;81;61;
32503;PMS5003;18953;45.930;13.640;2024-01-25T02:22:49;84;65;
32503;PMS5003;18953;45.930;13.640;2024-01-25T02:28:05;86;65;
32503;PMS5003;18953;45.930;13.640;2024-01-25T02:33:22;86;66;
32503;PMS5003;18953;45.930;13.640;2024-01-25T02:38:39;80;60;
32503;PMS5003;18953;45.930;13.640;2024-01-25T02:43:56;79;62;
32503;PMS5003;18953;45.930;13.640;2024-01-25T02:49:12;85;64;
32503;PMS5003;18953;45.930;13.640;2024-01-25T02:54:29;86;66;
32503;PMS5003;18953;45.930;13.640;2024-01-25T02:59:46;89;67;
32503;PMS5003;18953;45.930;13.640;2024-01-25T03:05:02;87;66;
32503;PMS5003;18953;45.930;13.640;2024-01-25T03:10:19;84;64;
32503;PMS5003;18953;45.930;13.640;2024-01-25T03:15:35;85;65;
32503;PMS5003;18953;45.930;13.640;2024-01-25T03:20:52;79;60;
32503;PMS5003;18953;45.930;13.640;2024-01-25T03:26:09;74;59;
32503;PMS5003;18953;45.930;13.640;2024-01-25T03:31:25;68;51;
32503;PMS5003;18953;45.930;13.640;2024-01-25T03:36:43;60;49;
32503;PMS5003;18953;45.930;13.640;2024-01-25T03:41:59;49;44;
32503;PMS5003;18953;45.930;13.640;2024-01-25T03:47:16;66;52;
32503;PMS5003;18953;45.930;13.640;2024-01-25T03:52:33;70;56;
32503;PMS5003;18953;45.930;13.640;2024-01-25T03:57:50;75;59;
32503;PMS5003;18953;45.930;13.640;2024-01-25T04:03:07;85;65;
32503;PMS5003;18953;45.930;13.640;2024-01-25T04:08:23;77;58;
32503;PMS5003;18953;45.930;13.640;2024-01-25T04:13:40;77;60;
32503;PMS5003;18953;45.930;13.640;2024-01-25T04:18:57;79;61;
32503;PMS5003;18953;45.930;13.640;2024-01-25T04:24:13;74;59;
32503;PMS5003;18953;45.930;13.640;2024-01-25T04:34:46;66;52;
32503;PMS5003;18953;45.930;13.640;2024-01-25T04:40:03;86;65;
32503;PMS5003;18953;45.930;13.640;2024-01-25T04:45:19;68;54;
32503;PMS5003;18953;45.930;13.640;2024-01-25T04:50:35;66;52;
32503;PMS5003;18953;45.930;13.640;2024-01-25T04:55:51;58;46;
32503;PMS5003;18953;45.930;13.640;2024-01-25T05:01:07;63;48;
32503;PMS5003;18953;45.930;13.640;2024-01-25T05:06:24;67;56;
32503;PMS5003;18953;45.930;13.640;2024-01-25T05:11:41;81;62;
32503;PMS5003;18953;45.930;13.640;2024-01-25T05:16:57;75;60;
32503;PMS5003;18953;45.930;13.640;2024-01-25T05:22:15;84;65;
32503;PMS5003;18953;45.930;13.640;2024-01-25T05:27:31;77;60;
32503;PMS5003;18953;45.930;13.640;2024-01-25T05:32:48;74;57;
32503;PMS5003;18953;45.930;13.640;2024-01-25T05:38:05;95;71;
32503;PMS5003;18953;45.930;13.640;2024-01-25T05:43:21;75;58;
32503;PMS5003;18953;45.930;13.640;2024-01-25T05:48:37;81;63;
32503;PMS5003;18953;45.930;13.640;2024-01-25T05:53:54;82;64;
32503;PMS5003;18953;45.930;13.640;2024-01-25T05:59:12;83;66;
32503;PMS5003;18953;45.930;13.640;2024-01-25T06:04:28;77;61;
32503;PMS5003;18953;45.930;13.640;2024-01-25T06:09:44;79;60;
32503;PMS5003;18953;45.930;13.640;2024-01-25T06:15:01;78;62;
32503;PMS5003;18953;45.930;13.640;2024-01-25T06:20:17;75;61;
32503;PMS5003;18953;45.930;13.640;2024-01-25T06:25:34;75;60;
32503;PMS5003;18953;45.930;13.640;2024-01-25T06:30:51;82;64;
32503;PMS5003;18953;45.930;13.640;2024-01-25T06:36:07;81;62;
32503;PMS5003;18953;45.930;13.640;2024-01-25T06:41:24;81;62;
32503;PMS5003;18953;45.930;13.640;2024-01-25T06:46:41;77;61;
32503;PMS5003;18953;45.930;13.640;2024-01-25T06:51:58;74;58;
32503;PMS5003;18953;45.930;13.640;2024-01-25T06:57:15;82;64;
32503;PMS5003;18953;45.930;13.640;2024-01-25T07:02:31;84;64;
32503;PMS5003;18953;45.930;13.640;2024-01-25T07:07:47;76;59;
32503;PMS5003;18953;45.930;13.640;2024-01-25T07:13:04;84;65;
32503;PMS5003;18953;45.930;13.640;2024-01-25T07:18:21;90;69;
32503;PMS5003;18953;45.930;13.640;2024-01-25T07:23:37;89;65;
32503;PMS5003;18953;45.930;13.640;2024-01-25T07:28:53;83;66;
32503;PMS5003;18953;45.930;13.640;2024-01-25T07:34:11;88;67;
32503;PMS5003;18953;45.930;13.640;2024-01-25T07:39:28;81;62;
32503;PMS5003;18953;45.930;13.640;2024-01-25T07:44:44;77;62;
32503;PMS5003;18953;45.930;13.640;2024-01-25T07:50:00;73;56;
32503;PMS5003;18953;45.930;13.640;2024-01-25T07:55:17;103;83;
32503;PMS5003;18953;45.930;13.640;2024-01-25T08:00:33;95;74;
32503;PMS5003;18953;45.930;13.640;2024-01-25T08:05:49;97;78;
32503;PMS5003;18953;45.930;13.640;2024-01-25T08:11:06;90;69;
32503;PMS5003;18953;45.930;13.640;2024-01-25T08:16:22;100;82;
32503;PMS5003;18953;45.930;13.640;2024-01-25T08:21:38;92;69;
32503;PMS5003;18953;45.930;13.640;2024-01-25T08:26:55;92;71;
32503;PMS5003;18953;45.930;13.640;2024-01-25T08:37:29;93;72;
32503;PMS5003;18953;45.930;13.640;2024-01-25T08:42:45;88;69;
32503;PMS5003;18953;45.930;13.640;2024-01-25T08:48:02;82;64;
32503;PMS5003;18953;45.930;13.640;2024-01-25T08:53:19;88;70;
32503;PMS5003;18953;45.930;13.640;2024-01-25T08:58:35;75;59;
32503;PMS5003;18953;45.930;13.640;2024-01-25T09:03:53;76;60;
32503;PMS5003;18953;45.930;13.640;2024-01-25T09:09:08;74;57;
32503;PMS5003;18953;45.930;13.640;2024-01-25T09:14:24;71;56;
32503;PMS5003;18953;45.930;13.640;2024-01-25T09:19:41;78;61;
32503;PMS5003;18953;45.930;13.640;2024-01-25T09:24:58;72;57;
32503;PMS5003;18953;45.930;13.640;2024-01-25T09:30:15;75;57;
32503;PMS5003;18953;45.930;13.640;2024-01-25T09:35:31;77;58;
32503;PMS5003;18953;45.930;13.640;2024-01-25T09:40:47;74;57;
32503;PMS5003;18953;45.930;13.640;2024-01-25T09:46:04;66;54;
32503;PMS5003;18953;45.930;13.640;2024-01-25T09:51:20;65;48;
32503;PMS5003;18953;45.930;13.640;2024-01-25T09:56:36;58;46;
32503;PMS5003;18953;45.930;13.640;2024-01-25T10:01:53;51;41;
32503;PMS5003;18953;45.930;13.640;2024-01-25T10:07:10;55;44;
32503;PMS5003;18953;45.930;13.640;2024-01-25T10:12:26;44;38;
32503;PMS5003;18953;45.930;13.640;2024-01-25T10:17:43;47;39;
32503;PMS5003;18953;45.930;13.640;2024-01-25T10:22:59;38;35;
32503;PMS5003;18953;45.930;13.640;2024-01-25T10:28:16;46;38;
32503;PMS5003;18953;45.930;13.640;2024-01-25T10:33:32;51;40;
32503;PMS5003;18953;45.930;13.640;2024-01-25T10:38:49;40;36;
32503;PMS5003;18953;45.930;13.640;2024-01-25T10:44:05;48;39;
32503;PMS5003;18953;45.930;13.640;2024-01-25T10:49:22;43;36;
32503;PMS5003;18953;45.930;13.640;2024-01-25T10:54:38;46;37;
32503;PMS5003;18953;45.930;13.640;2024-01-25T10:59:54;44;38;
32503;PMS5003;18953;45.930;13.640;2024-01-25T11:05:11;60;48;
32503;PMS5003;18953;45.930;13.640;2024-01-25T11:10:27;53;40;
32503;PMS5003;18953;45.930;13.640;2024-01-25T11:15:43;46;37;
32503;PMS5003;18953;45.930;13.640;2024-01-25T11:20:59;48;39;
32503;PMS5003;18953;45.930;13.640;2024-01-25T11:26:16;46;38;
32503;PMS5003;18953;45.930;13.640;2024-01-25T11:31:32;39;33;
32503;PMS5003;18953;45.930;13.640;2024-01-25T11:36:49;31;28;
32503;PMS5003;18953;45.930;13.640;2024-01-25T11:42:05;36;31;
32503;PMS5003;18953;45.930;13.640;2024-01-25T11:47:21;59;47;
32503;PMS5003;18953;45.930;13.640;2024-01-25T11:52:38;41;35;
32503;PMS5003;18953;45.930;13.640;2024-01-25T11:57:54;38;33;
32503;PMS5003;18953;45.930;13.640;2024-01-25T12:03:10;30;26;
32503;PMS5003;18953;45.930;13.640;2024-01-25T12:08:26;23;23;
32503;PMS5003;18953;45.930;13.640;2024-01-25T12:13:43;25;23;
32503;PMS5003;18953;45.930;13.640;2024-01-25T12:18:59;22;20;
32503;PMS5003;18953;45.930;13.640;2024-01-25T12:24:16;19;17;
32503;PMS5003;18953;45.930;13.640;2024-01-25T12:29:32;16;15;
32503;PMS5003;18953;45.930;13.640;2024-01-25T12:34:52;18;17;
32503;PMS5003;18953;45.930;13.640;2024-01-25T12:40:05;17;16;
32503;PMS5003;18953;45.930;13.640;2024-01-25T12:45:21;18;18;
32503;PMS5003;18953;45.930;13.640;2024-01-25T12:50:37;14;13;
32503;PMS5003;18953;45.930;13.640;2024-01-25T12:55:54;13;11;
32503;PMS5003;18953;45.930;13.640;2024-01-25T13:01:10;19;17;
32503;PMS5003;18953;45.930;13.640;2024-01-25T13:06:26;20;19;
32503;PMS5003;18953;45.930;13.640;2024-01-25T13:11:43;26;25;
32503;PMS5003;18953;45.930;13.640;2024-01-25T13:16:59;34;31;
32503;PMS5003;18953;45.930;13.640;2024-01-25T13:22:16;29;26;
32503;PMS5003;18953;45.930;13.640;2024-01-25T13:27:32;22;22;
32503;PMS5003;18953;45.930;13.640;2024-01-25T13:32:48;28;26;
32503;PMS5003;18953;45.930;13.640;2024-01-25T13:38:05;25;24;
32503;PMS5003;18953;45.930;13.640;2024-01-25T13:43:21;26;25;
32503;PMS5003;18953;45.930;13.640;2024-01-25T13:48:38;23;22;
32503;PMS5003;18953;45.930;13.640;2024-01-25T13:53:54;28;25;
32503;PMS5003;18953;45.930;13.640;2024-01-25T13:59:11;23;22;
32503;PMS5003;18953;45.930;13.640;2024-01-25T14:04:27;27;23;
32503;PMS5003;18953;45.930;13.640;2024-01-25T14:09:43;25;23;
32503;PMS5003;18953;45.930;13.640;2024-01-25T14:14:59;33;29;
32503;PMS5003;18953;45.930;13.640;2024-01-25T14:20:16;27;25;
32503;PMS5003;18953;45.930;13.640;2024-01-25T14:25:32;25;23;
32503;PMS5003;18953;45.930;13.640;2024-01-25T14:30:48;23;21;
32503;PMS5003;18953;45.930;13.640;2024-01-25T14:36:05;24;22;
32503;PMS5003;18953;45.930;13.640;2024-01-25T14:41:22;38;33;
32503;PMS5003;18953;45.930;13.640;2024-01-25T14:46:38;44;34;
32503;PMS5003;18953;45.930;13.640;2024-01-25T14:51:54;57;43;
32503;PMS5003;18953;45.930;13.640;2024-01-25T14:57:11;53;43;
32503;PMS5003;18953;45.930;13.640;2024-01-25T15:02:27;50;42;
32503;PMS5003;18953;45.930;13.640;2024-01-25T15:07:44;40;32;
32503;PMS5003;18953;45.930;13.640;2024-01-25T15:13:00;38;33;
32503;PMS5003;18953;45.930;13.640;2024-01-25T15:18:16;37;32;
32503;PMS5003;18953;45.930;13.640;2024-01-25T15:23:33;61;48;
32503;PMS5003;18953;45.930;13.640;2024-01-25T15:28:50;42;35;
32503;PMS5003;18953;45.930;13.640;2024-01-25T15:34:06;42;36;
32503;PMS5003;18953;45.930;13.640;2024-01-25T15:39:23;43;37;
32503;PMS5003;18953;45.930;13.640;2024-01-25T15:44:40;50;36;
32503;PMS5003;18953;45.930;13.640;2024-01-25T15:49:56;42;36;
32503;PMS5003;18953;45.930;13.640;2024-01-25T15:55:12;42;36;
32503;PMS5003;18953;45.930;13.640;2024-01-25T16:00:29;42;37;
32503;PMS5003;18953;45.930;13.640;2024-01-25T16:05:45;56;44;
32503;PMS5003;18953;45.930;13.640;2024-01-25T16:11:01;45;38;
32503;PMS5003;18953;45.930;13.640;2024-01-25T16:16:17;52;41;
32503;PMS5003;18953;45.930;13.640;2024-01-25T16:21:34;55;44;
32503;PMS5003;18953;45.930;13.640;2024-01-25T16:26:51;62;51;
32503;PMS5003;18953;45.930;13.640;2024-01-25T16:32:07;56;45;
32503;PMS5003;18953;45.930;13.640;2024-01-25T16:37:24;62;50;
32503;PMS5003;18953;45.930;13.640;2024-01-25T16:42:41;58;48;
32503;PMS5003;18953;45.930;13.640;2024-01-25T16:47:58;76;60;
32503;PMS5003;18953;45.930;13.640;2024-01-25T16:53:15;96;87;
32503;PMS5003;18953;45.930;13.640;2024-01-25T16:58:32;67;53;
32503;PMS5003;18953;45.930;13.640;2024-01-25T17:03:50;68;55;
32503;PMS5003;18953;45.930;13.640;2024-01-25T17:09:07;64;51;
32503;PMS5003;18953;45.930;13.640;2024-01-25T17:14:23;80;62;
32503;PMS5003;18953;45.930;13.640;2024-01-25T17:19:40;95;79;
32503;PMS5003;18953;45.930;13.640;2024-01-25T17:24:56;88;67;
32503;PMS5003;18953;45.930;13.640;2024-01-25T17:30:14;92;74;
32503;PMS5003;18953;45.930;13.640;2024-01-25T17:35:30;77;62;
32503;PMS5003;18953;45.930;13.640;2024-01-25T17:40:47;75;59;
32503;PMS5003;18953;45.930;13.640;2024-01-25T17:46:04;90;75;
32503;PMS5003;18953;45.930;13.640;2024-01-25T17:51:20;96;81;
32503;PMS5003;18953;45.930;13.640;2024-01-25T17:56:37;90;75;
32503;PMS5003;18953;45.930;13.640;2024-01-25T18:01:53;84;66;
32503;PMS5003;18953;45.930;13.640;2024-01-25T18:07:10;85;66;
32503;PMS5003;18953;45.930;13.640;2024-01-25T18:12:27;87;68;
32503;PMS5003;18953;45.930;13.640;2024-01-25T18:17:43;91;73;
32503;PMS5003;18953;45.930;13.640;2024-01-25T18:23:00;79;63;
32503;PMS5003;18953;45.930;13.640;2024-01-25T18:28:17;71;58;
32503;PMS5003;18953;45.930;13.640;2024-01-25T18:33:33;94;75;
32503;PMS5003;18953;45.930;13.640;2024-01-25T18:38:50;86;66;
32503;PMS5003;18953;45.930;13.640;2024-01-25T18:44:06;89;67;
32503;PMS5003;18953;45.930;13.640;2024-01-25T18:49:23;87;66;
32503;PMS5003;18953;45.930;13.640;2024-01-25T18:54:40;108;93;
32503;PMS5003;18953;45.930;13.640;2024-01-25T18:59:57;90;72;
32503;PMS5003;18953;45.930;13.640;2024-01-25T19:05:13;90;66;
32503;PMS5003;18953;45.930;13.640;2024-01-25T19:10:29;95;74;
32503;PMS5003;18953;45.930;13.640;2024-01-25T19:15:45;119;102;
32503;PMS5003;18953;45.930;13.640;2024-01-25T19:21:02;116;96;
32503;PMS5003;18953;45.930;13.640;2024-01-25T19:26:18;91;69;
32503;PMS5003;18953;45.930;13.640;2024-01-25T19:31:35;66;54;
32503;PMS5003;18953;45.930;13.640;2024-01-25T19:36:51;82;65;
32503;PMS5003;18953;45.930;13.640;2024-01-25T19:42:07;100;79;
32503;PMS5003;18953;45.930;13.640;2024-01-25T19:47:23;90;69;
32503;PMS5003;18953;45.930;13.640;2024-01-25T19:52:40;79;60;
32503;PMS5003;18953;45.930;13.640;2024-01-25T19:57:58;79;62;
32503;PMS5003;18953;45.930;13.640;2024-01-25T20:03:13;75;60;
32503;PMS5003;18953;45.930;13.640;2024-01-25T20:08:29;94;73;
32503;PMS5003;18953;45.930;13.640;2024-01-25T20:13:46;106;89;
32503;PMS5003;18953;45.930;13.640;2024-01-25T20:19:03;103;83;
32503;PMS5003;18953;45.930;13.640;2024-01-25T20:24:19;100;77;
32503;PMS5003;18953;45.930;13.640;2024-01-25T20:29:37;95;74;
32503;PMS5003;18953;45.930;13.640;2024-01-25T20:34:54;99;79;
32503;PMS5003;18953;45.930;13.640;2024-01-25T20:40:11;95;74;
32503;PMS5003;18953;45.930;13.640;2024-01-25T20:45:28;97;77;
32503;PMS5003;18953;45.930;13.640;2024-01-25T20:50:44;84;66;
32503;PMS5003;18953;45.930;13.640;2024-01-25T20:56:00;82;62;
32503;PMS5003;18953;45.930;13.640;2024-01-25T21:01:17;85;66;
32503;PMS5003;18953;45.930;13.640;2024-01-25T21:06:34;84;66;
32503;PMS5003;18953;45.930;13.640;2024-01-25T21:11:52;85;66;
32503;PMS5003;18953;45.930;13.640;2024-01-25T21:17:08;84;62;
32503;PMS5003;18953;45.930;13.640;2024-01-25T21:22:25;98;76;
32503;PMS5003;18953;45.930;13.640;2024-01-25T21:27:42;96;74;
32503;PMS5003;18953;45.930;13.640;2024-01-25T21:32:58;91;69;
32503;PMS5003;18953;45.930;13.640;2024-01-25T21:38:15;82;65;
32503;PMS5003;18953;45.930;13.640;2024-01-25T21:43:32;81;65;
32503;PMS5003;18953;45.930;13.640;2024-01-25T21:48:49;93;73;
32503;PMS5003;18953;45.930;13.640;2024-01-25T21:54:06;80;63;
32503;PMS5003;18953;45.930;13.640;2024-01-25T21:59:22;86;64;
32503;PMS5003;18953;45.930;13.640;2024-01-25T22:04:39;73;58;
32503;PMS5003;18953;45.930;13.640;2024-01-25T22:09:55;64;54;
32503;PMS5003;18953;45.930;13.640;2024-01-25T22:15:12;88;66;
32503;PMS5003;18953;45.930;13.640;2024-01-25T22:20:29;91;68;
32503;PMS5003;18953;45.930;13.640;2024-01-25T22:25:47;91;65;
32503;PMS5003;18953;45.930;13.640;2024-01-25T22:31:03;79;62;
32503;PMS5003;18953;45.930;13.640;2024-01-25T22:36:19;72;56;
32503;PMS5003;18953;45.930;13.640;2024-01-25T22:41:36;72;57;
32503;PMS5003;18953;45.930;13.640;2024-01-25T22:46:53;70;57;
32503;PMS5003;18953;45.930;13.640;2024-01-25T22:52:09;65;51;
32503;PMS5003;18953;45.930;13.640;2024-01-25T22:57:26;65;52;
32503;PMS5003;18953;45.930;13.640;2024-01-25T23:02:43;68;52;
32503;PMS5003;18953;45.930;13.640;2024-01-25T23:08:00;76;59;
32503;PMS5003;18953;45.930;13.640;2024-01-25T23:13:16;72;59;
32503;PMS5003;18953;45.930;13.640;2024-01-25T23:18:32;70;56;
32503;PMS5003;18953;45.930;13.640;2024-01-25T23:23:49;66;55;
32503;PMS5003;18953;45.930;13.640;2024-01-25T23:29:05;56;46;
32503;PMS5003;18953;45.930;13.640;2024-01-25T23:34:22;56;47;
32503;PMS5003;18953;45.930;13.640;2024-01-25T23:39:38;53;43;
32503;PMS5003;18953;45.930;13.640;2024-01-25T23:44:55;48;42;
32503;PMS5003;18953;45.930;13.640;2024-01-25T23:50:11;52;43;
32503;PMS5003;18953;45.930;13.640;2024-01-25T23:55:27;52;44;
